createdAt,value
2018-12-29T00:01:17.560Z,11.40
2018-12-29T00:03:58.519Z,11.77
2018-12-29T00:06:39.539Z,11.73
2018-12-29T00:09:20.833Z,12.13
2018-12-29T00:12:02.094Z,11.63
2018-12-29T00:14:46.578Z,11.40
2018-12-29T00:17:27.989Z,11.77
2018-12-29T00:20:09.259Z,11.40
2018-12-29T00:22:50.340Z,11.83
2018-12-29T00:25:31.930Z,12.17
2018-12-29T00:28:13.444Z,11.47
2018-12-29T00:30:55.037Z,11.93
2018-12-29T00:33:36.320Z,11.77
2018-12-29T00:36:17.176Z,11.07
2018-12-29T00:38:58.643Z,10.73
2018-12-29T00:41:40.018Z,12.53
2018-12-29T00:44:21.179Z,11.83
2018-12-29T00:47:02.671Z,11.33
2018-12-29T00:49:44.180Z,10.83
2018-12-29T00:52:25.656Z,11.83
2018-12-29T00:55:07.342Z,12.57
2018-12-29T00:57:48.996Z,11.10
2018-12-29T01:00:30.678Z,11.23
2018-12-29T01:03:11.870Z,11.13
2018-12-29T01:05:52.950Z,11.23
2018-12-29T01:08:34.454Z,12.00
2018-12-29T01:11:18.607Z,11.43
2018-12-29T01:14:00.008Z,11.00
2018-12-29T01:16:41.505Z,10.80
2018-12-29T01:19:23.342Z,12.03
2018-12-29T01:22:04.951Z,11.80
2018-12-29T01:24:35.124Z,11.87
2018-12-29T01:27:05.094Z,12.10
2018-12-29T01:29:53.844Z,11.93
2018-12-29T01:32:24.049Z,10.73
2018-12-29T01:35:12.986Z,11.63
2018-12-29T01:37:54.399Z,13.10
2018-12-29T01:40:35.979Z,12.77
2018-12-29T01:43:17.236Z,12.43
2018-12-29T01:45:58.820Z,11.80
2018-12-29T01:48:40.042Z,12.10
2018-12-29T01:51:21.177Z,13.10
2018-12-29T01:54:02.212Z,11.13
2018-12-29T01:56:43.161Z,11.37
2018-12-29T01:59:24.722Z,12.40
2018-12-29T02:02:06.162Z,12.03
2018-12-29T02:04:47.759Z,12.07
2018-12-29T02:07:17.905Z,12.57
2018-12-29T02:10:06.725Z,12.30
2018-12-29T02:12:36.487Z,12.73
2018-12-29T02:15:25.249Z,12.57
2018-12-29T02:18:06.684Z,12.40
2018-12-29T02:20:47.897Z,12.40
2018-12-29T02:23:29.475Z,12.77
2018-12-29T02:26:10.857Z,12.60
2018-12-29T02:28:52.121Z,12.87
2018-12-29T02:31:33.598Z,14.27
2018-12-29T02:34:03.458Z,13.37
2018-12-29T02:36:52.155Z,14.70
2018-12-29T02:39:33.705Z,14.00
2018-12-29T02:42:14.723Z,14.83
2018-12-29T02:44:56.116Z,15.93
2018-12-29T02:47:36.949Z,13.40
2018-12-29T02:50:07.772Z,14.05
2018-12-29T02:52:56.375Z,13.83
2018-12-29T02:55:38.125Z,13.27
2018-12-29T02:58:19.430Z,14.70
2018-12-29T03:01:00.812Z,15.20
2018-12-29T03:03:42.470Z,14.60
2018-12-29T03:06:23.695Z,14.80
2018-12-29T03:09:05.555Z,13.53
2018-12-29T03:11:46.620Z,13.67
2018-12-29T03:14:28.368Z,14.33
2018-12-29T03:17:09.769Z,13.93
2018-12-29T03:19:51.351Z,13.37
2018-12-29T03:22:32.825Z,14.17
2018-12-29T03:25:14.058Z,15.47
2018-12-29T03:27:54.912Z,13.67
2018-12-29T03:30:36.372Z,15.37
2018-12-29T03:33:17.419Z,13.20
2018-12-29T03:35:59.036Z,14.43
2018-12-29T03:38:29.064Z,13.73
2018-12-29T03:41:19.152Z,13.43
2018-12-29T03:44:07.889Z,13.33
2018-12-29T03:46:56.589Z,13.93
2018-12-29T03:49:45.371Z,14.47
2018-12-29T03:52:26.861Z,13.17
2018-12-29T03:55:08.650Z,13.80
2018-12-29T03:57:50.194Z,13.87
2018-12-29T04:00:31.765Z,13.60
2018-12-29T04:03:12.946Z,14.33
2018-12-29T04:05:54.149Z,13.93
2018-12-29T04:08:35.586Z,14.83
2018-12-29T04:12:42.828Z,13.13
2018-12-29T04:14:46.689Z,13.57
2018-12-29T04:17:27.738Z,13.30
2018-12-29T04:20:08.957Z,14.43
2018-12-29T04:22:53.281Z,13.73
2018-12-29T04:25:34.779Z,13.97
2018-12-29T04:28:16.131Z,14.70
2018-12-29T04:34:16.793Z,13.97
2018-12-29T04:36:58.070Z,13.93
2018-12-29T04:39:39.743Z,13.83
2018-12-29T04:42:21.081Z,14.23
2018-12-29T04:44:50.740Z,13.03
2018-12-29T04:47:39.908Z,13.20
2018-12-29T04:50:20.797Z,14.37
2018-12-29T04:52:50.394Z,14.47
2018-12-29T04:55:31.629Z,14.97
2018-12-29T04:58:13.107Z,13.87
2018-12-29T05:00:54.437Z,14.97
2018-12-29T05:03:24.344Z,14.37
2018-12-29T05:09:26.549Z,13.90
2018-12-29T05:12:13.771Z,14.77
2018-12-29T05:15:02.610Z,13.77
2018-12-29T05:17:43.672Z,14.67
2018-12-29T05:20:24.875Z,14.53
2018-12-29T05:23:06.548Z,13.67
2018-12-29T05:25:47.968Z,15.27
2018-12-29T05:28:30.080Z,15.60
2018-12-29T05:31:12.130Z,13.37
2018-12-29T05:33:53.615Z,15.23
2018-12-29T05:36:35.327Z,15.53
2018-12-29T05:39:21.183Z,15.27
2018-12-29T05:42:02.702Z,14.50
2018-12-29T05:44:44.513Z,13.97
2018-12-29T05:47:26.302Z,15.43
2018-12-29T05:50:07.427Z,13.53
2018-12-29T05:52:48.278Z,14.87
2018-12-29T05:55:30.166Z,14.70
2018-12-29T05:58:11.818Z,15.73
2018-12-29T06:01:08.028Z,15.53
2018-12-29T06:03:37.576Z,15.70
2018-12-29T06:06:22.637Z,14.57
2018-12-29T06:22:40.384Z,14.23
2018-12-29T06:25:22.088Z,14.57
2018-12-29T06:28:02.957Z,14.77
2018-12-29T06:30:44.347Z,15.40
2018-12-29T06:33:24.973Z,13.50
2018-12-29T06:36:51.414Z,15.27
2018-12-29T06:39:32.184Z,14.30
2018-12-29T06:42:13.205Z,14.63
2018-12-29T06:44:53.895Z,14.97
2018-12-29T06:47:34.976Z,15.40
2018-12-29T06:57:43.465Z,13.63
2018-12-29T07:00:11.665Z,14.47
2018-12-29T07:02:40.039Z,14.83
2018-12-29T07:05:21.168Z,12.97
2018-12-29T07:08:04.275Z,13.03
2018-12-29T07:10:33.823Z,14.33
2018-12-29T07:13:24.441Z,14.53
2018-12-29T07:19:21.666Z,13.47
2018-12-29T07:22:20.297Z,13.13
2018-12-29T07:25:02.019Z,13.77
2018-12-29T07:27:45.528Z,13.50
2018-12-29T07:33:40.776Z,13.07
2018-12-29T07:36:46.971Z,14.47
2018-12-29T07:39:44.340Z,15.40
2018-12-29T07:43:03.711Z,14.00
2018-12-29T07:48:13.420Z,14.57
2018-12-29T08:13:38.042Z,15.17
2018-12-29T08:16:19.581Z,16.70
2018-12-29T08:19:00.762Z,16.37
2018-12-29T08:21:42.042Z,16.63
2018-12-29T08:24:23.782Z,14.73
2018-12-29T08:27:05.614Z,15.13
2018-12-29T08:29:47.206Z,16.53
2018-12-29T08:38:37.826Z,14.47
2018-12-29T08:41:18.642Z,13.50
2018-12-29T08:44:19.026Z,14.23
2018-12-29T08:46:48.206Z,14.23
2018-12-29T08:52:32.347Z,14.50
2018-12-29T08:55:02.027Z,14.20
2018-12-29T08:57:32.214Z,14.33
2018-12-29T09:00:20.768Z,14.23
2018-12-29T09:03:09.328Z,14.97
2018-12-29T09:05:50.508Z,15.40
2018-12-29T09:08:31.420Z,15.70
2018-12-29T09:11:16.245Z,14.43
2018-12-29T09:16:46.520Z,14.40
2018-12-29T09:19:28.136Z,15.40
2018-12-29T09:22:09.790Z,15.77
2018-12-29T09:24:51.511Z,16.43
2018-12-29T09:27:21.478Z,16.70
2018-12-29T09:29:51.483Z,16.53
2018-12-29T09:35:56.433Z,15.70
2018-12-29T09:51:14.771Z,14.87
2018-12-29T09:53:55.955Z,16.33
2018-12-29T09:56:37.141Z,17.23
2018-12-29T09:59:18.153Z,17.20
2018-12-29T10:02:24.395Z,16.43
2018-12-29T10:05:05.644Z,15.33
2018-12-29T10:07:35.919Z,15.47
2018-12-29T10:10:24.730Z,17.17
2018-12-29T10:13:06.166Z,16.50
2018-12-29T10:15:58.265Z,15.80
2018-12-29T10:18:40.012Z,15.10
2018-12-29T10:24:27.072Z,15.30
2018-12-29T10:26:56.688Z,14.60
2018-12-29T10:29:45.560Z,14.70
2018-12-29T10:32:34.290Z,14.07
2018-12-29T10:35:15.924Z,14.10
2018-12-29T10:37:57.553Z,15.20
2018-12-29T10:40:38.741Z,14.50
2018-12-29T10:43:19.918Z,14.63
2018-12-29T10:46:01.224Z,14.53
2018-12-29T10:48:43.145Z,13.90
2018-12-29T10:51:24.407Z,13.17
2018-12-29T10:54:05.787Z,13.87
2018-12-29T10:56:47.260Z,13.53
2018-12-29T10:59:28.855Z,14.17
2018-12-29T11:02:10.075Z,14.10
2018-12-29T11:04:51.242Z,12.83
2018-12-29T11:07:32.294Z,12.30
2018-12-29T11:10:13.879Z,13.40
2018-12-29T11:12:55.122Z,13.30
2018-12-29T11:15:38.442Z,13.93
2018-12-29T11:18:20.242Z,12.37
2018-12-29T11:20:49.915Z,13.03
2018-12-29T11:23:38.807Z,13.30
2018-12-29T11:26:26.910Z,13.67
2018-12-29T11:29:08.154Z,12.70
2018-12-29T11:31:49.400Z,13.23
2018-12-29T11:34:32.566Z,13.00
2018-12-29T11:37:13.606Z,13.70
2018-12-29T11:39:57.834Z,12.57
2018-12-29T11:42:38.880Z,13.83
2018-12-29T11:45:19.887Z,12.97
2018-12-29T11:47:50.219Z,12.80
2018-12-29T11:51:10.937Z,13.27
2018-12-29T11:53:24.840Z,13.40
2018-12-29T11:56:08.355Z,12.77
2018-12-29T11:58:49.741Z,12.60
2018-12-29T12:01:31.053Z,12.97
2018-12-29T12:04:12.607Z,13.37
2018-12-29T12:06:55.991Z,13.10
2018-12-29T12:09:37.098Z,13.97
2018-12-29T12:12:18.396Z,13.00
2018-12-29T12:14:59.874Z,14.43
2018-12-29T12:17:41.628Z,13.67
2018-12-29T12:20:22.830Z,13.77
2018-12-29T12:23:04.720Z,13.63
2018-12-29T12:25:45.917Z,13.00
2018-12-29T12:28:30.103Z,13.93
2018-12-29T12:31:11.765Z,13.40
2018-12-29T12:33:41.838Z,13.60
2018-12-29T12:39:41.298Z,14.40
2018-12-29T12:42:25.076Z,13.87
2018-12-29T12:45:17.957Z,13.07
2018-12-29T12:53:57.166Z,13.50
2018-12-29T13:00:25.793Z,12.37
2018-12-29T13:02:49.399Z,12.77
2018-12-29T13:05:57.275Z,13.50
2018-12-29T13:08:16.965Z,12.03
2018-12-29T13:10:57.952Z,13.03
2018-12-29T13:17:23.620Z,13.27
2018-12-29T13:19:54.594Z,11.13
2018-12-29T13:22:38.675Z,12.63
2018-12-29T13:28:18.085Z,12.33
2018-12-29T13:31:00.495Z,12.07
2018-12-29T13:42:22.506Z,13.57
2018-12-29T13:42:57.841Z,12.97
2018-12-29T13:46:20.961Z,13.53
2018-12-29T13:48:40.918Z,14.23
2018-12-29T13:51:21.854Z,16.07
2018-12-29T13:54:03.549Z,14.47
2018-12-29T13:56:33.407Z,15.57
2018-12-29T13:59:03.416Z,13.40
2018-12-29T14:02:30.128Z,14.17
2018-12-29T14:08:30.533Z,12.33
2018-12-29T14:11:11.909Z,12.90
2018-12-29T14:13:58.405Z,12.90
2018-12-29T14:16:39.509Z,11.93
2018-12-29T14:22:32.253Z,11.70
2018-12-29T14:25:13.464Z,12.63
2018-12-29T14:28:25.934Z,11.20
2018-12-29T14:31:14.782Z,11.60
2018-12-29T14:33:46.121Z,11.93
2018-12-29T14:39:31.878Z,12.40
2018-12-29T14:52:05.921Z,9.17
2018-12-29T14:53:50.831Z,9.90
2018-12-29T15:02:29.802Z,8.77
2018-12-29T15:05:14.616Z,8.40
2018-12-29T15:07:57.115Z,10.13
2018-12-29T15:10:49.794Z,8.33
2018-12-29T15:16:42.334Z,7.57
2018-12-29T15:19:30.919Z,7.70
2018-12-29T15:33:15.977Z,7.47
2018-12-29T15:35:42.540Z,7.37
2018-12-29T15:38:23.900Z,9.50
2018-12-29T15:41:37.247Z,8.00
2018-12-29T15:46:36.297Z,8.23
2018-12-29T15:54:05.721Z,8.40
2018-12-29T16:08:13.610Z,7.60
2018-12-29T16:10:59.712Z,7.20
2018-12-29T16:13:45.568Z,7.03
2018-12-29T16:29:05.997Z,6.90
2018-12-29T16:31:39.049Z,6.97
2018-12-29T16:34:19.997Z,6.50
2018-12-29T16:37:01.295Z,5.40
2018-12-29T16:39:42.951Z,6.80
2018-12-29T16:42:23.756Z,6.67
2018-12-29T16:45:05.282Z,6.13
2018-12-29T16:47:45.950Z,5.97
2018-12-29T16:50:27.556Z,6.60
2018-12-29T16:53:08.704Z,6.00
2018-12-29T16:55:49.738Z,5.40
2018-12-29T17:01:25.193Z,6.20
2018-12-29T17:04:05.567Z,6.70
2018-12-29T17:06:46.932Z,6.00
2018-12-29T17:09:28.632Z,5.93
2018-12-29T17:12:09.691Z,5.43
2018-12-29T17:14:50.933Z,4.47
2018-12-29T17:17:32.496Z,5.20
2018-12-29T17:20:15.485Z,4.67
2018-12-29T17:22:56.807Z,5.17
2018-12-29T17:25:45.851Z,4.27
2018-12-29T17:31:11.734Z,3.20
2018-12-29T17:34:00.274Z,3.67
2018-12-29T17:36:42.228Z,4.03
2018-12-29T17:39:23.822Z,3.40
2018-12-29T17:42:05.356Z,3.57
2018-12-29T17:44:46.803Z,3.80
2018-12-29T17:47:28.113Z,3.03
2018-12-29T17:50:08.890Z,3.27
2018-12-29T17:52:53.389Z,3.07
2018-12-29T17:55:34.592Z,2.90
2018-12-29T17:58:16.034Z,1.77
2018-12-29T18:00:56.920Z,1.50
2018-12-29T18:06:46.606Z,2.43
2018-12-29T18:12:35.397Z,1.93
2018-12-29T18:15:46.597Z,3.27
2018-12-29T18:18:28.217Z,2.70
2018-12-29T18:21:09.566Z,3.27
2018-12-29T18:23:51.031Z,3.07
2018-12-29T18:26:20.752Z,2.97
2018-12-29T18:29:09.312Z,1.97
2018-12-29T18:31:57.850Z,2.97
2018-12-29T18:34:39.471Z,2.20
2018-12-29T18:37:20.267Z,2.20
2018-12-29T18:40:01.592Z,2.20
2018-12-29T18:42:42.568Z,2.20
2018-12-29T18:45:24.215Z,2.63
2018-12-29T18:48:05.504Z,1.97
2018-12-29T18:50:46.752Z,2.37
2018-12-29T18:53:28.166Z,2.10
2018-12-29T18:56:09.273Z,2.40
2018-12-29T18:58:50.571Z,2.30
2018-12-29T19:01:31.438Z,2.77
2018-12-29T19:06:56.231Z,2.50
2018-12-29T19:09:37.389Z,2.50
2018-12-29T19:12:18.066Z,2.70
2018-12-29T19:14:59.625Z,2.63
2018-12-29T19:17:41.213Z,2.93
2018-12-29T19:20:22.259Z,4.03
2018-12-29T19:23:01.830Z,2.57
2018-12-29T19:25:50.434Z,1.97
2018-12-29T19:28:38.487Z,3.23
2018-12-29T19:31:19.386Z,3.03
2018-12-29T19:34:00.278Z,3.23
2018-12-29T19:36:41.724Z,4.20
2018-12-29T19:39:23.289Z,2.63
2018-12-29T19:42:04.735Z,3.17
2018-12-29T19:44:46.213Z,2.87
2018-12-29T19:47:28.047Z,3.80
2018-12-29T19:50:10.603Z,2.63
2018-12-29T19:52:51.939Z,3.10
2018-12-29T19:55:33.162Z,3.27
2018-12-29T19:58:13.932Z,3.30
2018-12-29T20:00:55.202Z,3.23
2018-12-29T20:03:36.691Z,3.30
2018-12-29T20:06:18.007Z,3.73
2018-12-29T20:08:59.689Z,3.27
2018-12-29T20:11:41.079Z,3.97
2018-12-29T20:17:41.330Z,4.30
2018-12-29T20:20:22.814Z,5.00
2018-12-29T20:23:04.623Z,4.27
2018-12-29T20:25:45.986Z,5.10
2018-12-29T20:28:27.036Z,4.20
2018-12-29T20:31:08.657Z,4.30
2018-12-29T20:33:50.114Z,3.80
2018-12-29T20:36:19.650Z,3.43
2018-12-29T20:39:08.248Z,4.13
2018-12-29T20:41:56.834Z,3.93
2018-12-29T20:44:26.401Z,6.07
2018-12-29T20:47:14.977Z,5.53
2018-12-29T20:49:56.022Z,3.53
2018-12-29T20:52:37.536Z,4.10
2018-12-29T20:55:07.545Z,5.30
2018-12-29T20:57:56.103Z,3.77
2018-12-29T21:00:36.927Z,4.10
2018-12-29T21:03:36.824Z,3.27
2018-12-29T21:06:18.059Z,3.37
2018-12-29T21:08:59.524Z,3.10
2018-12-29T21:11:40.747Z,3.07
2018-12-29T21:14:22.032Z,3.03
2018-12-29T21:16:51.551Z,2.90
2018-12-29T21:19:40.182Z,3.80
2018-12-29T21:22:28.771Z,3.90
2018-12-29T21:27:51.860Z,4.20
2018-12-29T21:30:33.265Z,3.23
2018-12-29T21:33:14.553Z,4.23
2018-12-29T21:35:55.972Z,4.37
2018-12-29T21:38:37.607Z,3.30
2018-12-29T21:41:18.371Z,3.90
2018-12-29T21:44:00.218Z,5.13
2018-12-29T21:46:41.777Z,4.47
2018-12-29T21:49:21.434Z,4.40
2018-12-29T21:52:10.124Z,4.60
2018-12-29T21:54:50.983Z,5.10
2018-12-29T21:57:32.023Z,4.27
2018-12-29T22:00:12.753Z,4.83
2018-12-29T22:02:54.257Z,6.57
2018-12-29T22:05:24.205Z,4.07
2018-12-29T22:08:12.824Z,6.80
2018-12-29T22:10:54.000Z,4.47
2018-12-29T22:13:35.382Z,4.77
2018-12-29T22:16:16.895Z,4.40
2018-12-29T22:18:46.430Z,6.23
2018-12-29T22:21:28.188Z,4.10
2018-12-29T22:24:08.863Z,5.73
2018-12-29T22:26:49.680Z,4.63
2018-12-29T22:29:31.441Z,4.93
2018-12-29T22:32:12.231Z,3.97
2018-12-29T22:34:53.817Z,5.50
2018-12-29T22:37:33.560Z,5.03
2018-12-29T22:40:03.038Z,5.57
2018-12-29T22:42:51.619Z,4.57
2018-12-29T22:45:33.139Z,4.23
2018-12-29T22:48:13.947Z,4.50
2018-12-29T22:50:55.271Z,4.37
2018-12-29T22:53:36.900Z,3.90
2018-12-29T22:56:18.099Z,4.47
2018-12-29T23:01:57.763Z,3.10
2018-12-29T23:04:39.238Z,3.77
2018-12-29T23:07:20.796Z,3.27
2018-12-29T23:10:03.201Z,3.67
2018-12-29T23:12:44.693Z,3.93
2018-12-29T23:15:25.806Z,3.23
2018-12-29T23:18:07.194Z,3.27
2018-12-29T23:20:37.012Z,3.17
2018-12-29T23:23:25.599Z,4.23
2018-12-29T23:26:14.355Z,3.77
2018-12-29T23:28:55.888Z,3.93
2018-12-29T23:31:36.825Z,3.30
2018-12-29T23:34:17.771Z,3.00
2018-12-29T23:36:59.256Z,3.67
2018-12-29T23:39:40.009Z,3.53
2018-12-29T23:42:21.245Z,3.63
2018-12-29T23:45:02.020Z,4.03
2018-12-29T23:47:43.877Z,3.73
2018-12-29T23:50:25.613Z,2.80
2018-12-29T23:53:06.959Z,2.70
2018-12-29T23:55:48.549Z,3.03
2018-12-29T23:58:18.061Z,3.03
